Time;durP1;ratioP1;P1;durP2;ratioP2;P2;SDS_P1;SDS_P2;PMS_P1;PMS_P2;Temp;Humidity;BMP_temperature;BMP_pressure;BME280_temperature;BME280_humidity;BME280_pressure;Samples;Min_cycle;Max_cycle;Signal;HPM_P1;HPM_P2
2022/07/29 00:00:11;;;;;;;7.85;6.22;;;;;;;19.53;66.67;94090.47;5125319;28;20016;-74
2022/07/29 00:02:37;;;;;;;11.25;6.40;;;;;;;19.53;66.94;94101.28;5125290;28;20289;-74
2022/07/29 00:05:04;;;;;;;14.15;6.43;;;;;;;19.48;66.12;94117.03;5125126;28;20034;-74
2022/07/29 00:07:30;;;;;;;9.05;6.90;;;;;;;19.28;66.72;94119.06;5125080;27;20024;-74
2022/07/29 00:09:55;;;;;;;9.63;5.95;;;;;;;19.15;67.48;94129.25;5125200;28;20047;-74
2022/07/29 00:12:23;;;;;;;11.57;6.63;;;;;;;18.91;68.24;94133.88;5125063;28;20331;-74
2022/07/29 00:14:48;;;;;;;14.15;6.07;;;;;;;18.60;69.53;94127.50;5125154;28;20256;-74
2022/07/29 00:17:14;;;;;;;10.00;6.22;;;;;;;18.50;70.06;94132.69;5124852;28;20042;-74
2022/07/29 00:19:39;;;;;;;12.90;6.40;;;;;;;18.42;70.47;94140.66;5124817;28;20027;-75
2022/07/29 00:22:04;;;;;;;9.75;6.53;;;;;;;18.45;69.90;94133.75;5124785;27;20098;-74
2022/07/29 00:24:30;;;;;;;10.95;5.95;;;;;;;18.42;69.96;94135.25;5124721;28;20034;-73
2022/07/29 00:26:55;;;;;;;8.98;6.30;;;;;;;18.45;69.94;94120.28;5124583;28;20061;-74
2022/07/29 00:29:21;;;;;;;10.80;6.55;;;;;;;18.50;70.33;94111.91;5124686;28;20023;-74
2022/07/29 00:31:46;;;;;;;9.57;5.60;;;;;;;18.58;70.15;94121.69;5124809;28;20323;-73
2022/07/29 00:36:57;;;;;;;9.45;6.57;;;;;;;18.71;70.46;94125.00;5124472;28;20031;-74
2022/07/29 00:39:23;;;;;;;9.68;6.78;;;;;;;18.74;70.50;94126.19;5124476;28;20027;-72
2022/07/29 00:41:49;;;;;;;7.95;5.70;;;;;;;18.77;69.60;94134.38;5124385;28;20035;-72
2022/07/29 00:44:14;;;;;;;8.02;6.30;;;;;;;18.80;69.00;94128.28;5124618;28;20028;-73
2022/07/29 00:46:40;;;;;;;9.50;6.68;;;;;;;18.86;69.33;94134.16;5124154;28;20103;-73
2022/07/29 00:49:07;;;;;;;10.98;6.85;;;;;;;18.88;69.65;94128.41;5124265;28;20256;-73
2022/07/29 00:51:34;;;;;;;13.15;7.25;;;;;;;18.89;68.25;94132.66;5124335;27;20048;-73
2022/07/29 00:53:59;;;;;;;9.77;6.00;;;;;;;18.81;67.89;94131.78;5124188;28;20020;-73
2022/07/29 00:56:25;;;;;;;8.32;6.50;;;;;;;18.74;68.38;94135.06;5124116;28;20117;-73
2022/07/29 00:58:51;;;;;;;14.02;6.60;;;;;;;18.68;68.66;94130.31;5124133;28;20026;-73
2022/07/29 01:01:17;;;;;;;9.50;6.72;;;;;;;18.73;69.73;94127.34;5123987;28;20028;-74
2022/07/29 01:03:42;;;;;;;11.45;6.45;;;;;;;18.76;69.83;94126.63;5124291;28;20022;-74
2022/07/29 01:06:09;;;;;;;13.75;6.95;;;;;;;18.78;70.08;94127.03;5123963;28;20028;-74
2022/07/29 01:08:35;;;;;;;8.13;6.07;;;;;;;18.74;68.90;94128.91;5124044;28;20310;-74
2022/07/29 01:11:02;;;;;;;10.63;6.57;;;;;;;18.76;68.82;94126.63;5123523;28;20015;-73
2022/07/29 01:13:30;;;;;;;11.52;6.50;;;;;;;18.78;68.69;94117.00;5123681;28;20039;-74
2022/07/29 01:16:06;;;;;;;16.63;7.78;;;;;;;18.81;69.14;94126.38;5123597;28;20042;-74
2022/07/29 01:18:37;;;;;;;11.63;7.70;;;;;;;18.79;69.37;94125.94;5123514;28;20245;-75
2022/07/29 01:21:18;;;;;;;13.75;6.75;;;;;;;18.80;69.56;94120.16;5123878;28;20064;-74
2022/07/29 01:24:02;;;;;;;14.25;7.47;;;;;;;18.77;69.53;94122.78;5123745;28;20061;-74
2022/07/29 01:26:34;;;;;;;10.15;7.18;;;;;;;18.75;70.07;94115.03;5123534;28;20230;-74
2022/07/29 01:29:08;;;;;;;10.10;6.95;;;;;;;18.77;70.61;94117.41;5123569;28;20305;-74
2022/07/29 01:31:53;;;;;;;10.30;7.05;;;;;;;18.82;70.48;94106.31;5123399;27;20023;-73
2022/07/29 01:34:27;;;;;;;10.50;6.97;;;;;;;18.84;70.71;94096.72;5123327;28;20023;-73
2022/07/29 01:37:18;;;;;;;13.45;7.78;;;;;;;18.90;70.82;94102.59;5123481;28;20031;-74
2022/07/29 01:39:47;;;;;;;11.63;7.30;;;;;;;18.94;70.37;94105.38;5123580;28;20023;-74
2022/07/29 01:42:24;;;;;;;8.45;6.75;;;;;;;18.87;70.73;94100.63;5123428;28;20023;-74
2022/07/29 01:45:04;;;;;;;13.07;7.43;;;;;;;18.86;70.60;94111.78;5123338;28;20023;-74
2022/07/29 01:47:56;;;;;;;15.10;7.85;;;;;;;18.80;70.34;94101.25;5123291;28;20030;-75
2022/07/29 01:50:26;;;;;;;;;;;;;;;18.82;70.54;94100.91;5123907;28;20090;-74
2022/07/29 01:53:03;;;;;;;14.98;7.40;;;;;;;18.80;71.08;94092.38;5123326;28;19911;-74
2022/07/29 01:55:33;;;;;;;13.20;7.82;;;;;;;18.80;71.14;94092.38;5123035;28;20095;-74
2022/07/29 01:58:00;;;;;;;8.88;6.90;;;;;;;18.81;71.52;94100.13;5122189;28;20336;-74
2022/07/29 02:00:48;;;;;;;12.02;7.68;;;;;;;18.88;71.20;94099.47;5123315;28;20028;-74
2022/07/29 02:03:17;;;;;;;9.30;6.95;;;;;;;18.88;71.33;94102.19;5123033;28;20026;-74
2022/07/29 02:05:45;;;;;;;10.93;7.25;;;;;;;18.94;71.74;94089.94;5122948;28;20065;-74
2022/07/29 02:08:11;;;;;;;9.73;7.22;;;;;;;18.99;71.22;94097.75;5123253;28;20027;-74
2022/07/29 02:10:39;;;;;;;10.27;7.15;;;;;;;18.96;70.83;94092.28;5123172;28;20042;-72
2022/07/29 02:13:07;;;;;;;11.63;8.73;;;;;;;18.95;70.98;94090.72;5123098;28;20068;-73
2022/07/29 02:15:34;;;;;;;14.68;7.80;;;;;;;18.95;70.92;94090.72;5122913;28;20314;-73
2022/07/29 02:18:09;;;;;;;10.35;7.15;;;;;;;18.97;71.05;94089.22;5121898;28;20350;-73
2022/07/29 02:20:36;;;;;;;8.85;6.95;;;;;;;18.95;70.89;94082.59;5122995;28;20023;-75
2022/07/29 02:23:02;;;;;;;11.68;8.30;;;;;;;18.93;71.06;94076.78;5122970;28;20029;-72
2022/07/29 02:25:28;;;;;;;10.52;7.65;;;;;;;18.92;71.38;94080.63;5126922;28;20237;-72
2022/07/29 02:27:55;;;;;;;13.68;7.97;;;;;;;18.92;71.43;94083.34;5127156;28;20035;-73
2022/07/29 02:30:23;;;;;;;12.80;8.10;;;;;;;18.95;71.22;94075.31;5127166;28;20059;-73
2022/07/29 02:32:50;;;;;;;13.70;8.20;;;;;;;18.98;71.57;94074.56;5126984;27;20366;-74
2022/07/29 02:35:17;;;;;;;12.05;8.63;;;;;;;18.96;71.23;94070.69;5127055;27;20090;-73
2022/07/29 02:37:45;;;;;;;12.55;7.72;;;;;;;18.99;71.35;94065.34;5127078;28;20260;-73
2022/07/29 02:40:14;;;;;;;12.73;8.20;;;;;;;19.01;71.81;94060.34;5126920;28;20031;-73
2022/07/29 02:42:42;;;;;;;12.20;7.65;;;;;;;18.98;71.65;94058.38;5126920;27;20350;-73
2022/07/29 02:45:08;;;;;;;12.02;8.32;;;;;;;19.00;71.67;94052.59;5126691;28;20086;-73
2022/07/29 02:47:42;;;;;;;13.77;8.35;;;;;;;19.03;71.56;94049.16;5126381;28;20026;-74
2022/07/29 02:50:27;;;;;;;13.75;7.93;;;;;;;19.04;71.71;94048.03;5126727;28;20043;-74
2022/07/29 02:53:17;;;;;;;9.40;7.03;;;;;;;19.01;71.51;94049.56;5126656;28;20064;-73
2022/07/29 02:55:51;;;;;;;10.23;7.40;;;;;;;19.02;71.25;94047.63;5126628;28;20389;-73
2022/07/29 02:58:32;;;;;;;15.98;7.70;;;;;;;18.93;71.54;94037.06;5126703;28;20256;-73
2022/07/29 03:01:04;;;;;;;15.60;8.25;;;;;;;18.91;71.88;94046.66;5126410;28;20031;-73
2022/07/29 03:03:33;;;;;;;13.00;8.60;;;;;;;18.91;71.58;94057.47;5126405;28;20035;-73
2022/07/29 03:06:02;;;;;;;16.38;9.13;;;;;;;18.74;71.69;94058.69;5126274;28;20023;-73
2022/07/29 03:08:28;;;;;;;18.20;9.70;;;;;;;18.62;72.37;94051.53;5126151;28;20059;-73
2022/07/29 03:10:55;;;;;;;17.75;9.25;;;;;;;18.48;72.97;94057.50;5126242;28;20209;-73
2022/07/29 03:13:21;;;;;;;15.18;10.40;;;;;;;18.33;73.49;94058.34;5126461;28;20028;-75
2022/07/29 03:15:47;;;;;;;17.65;10.55;;;;;;;18.26;74.37;94056.31;5126147;28;20310;-74
2022/07/29 03:18:14;;;;;;;17.30;9.63;;;;;;;18.17;74.57;94064.59;5126065;28;20047;-74
2022/07/29 03:20:40;;;;;;;15.35;10.82;;;;;;;18.11;75.27;94071.44;5125972;28;20043;-74
2022/07/29 03:23:06;;;;;;;15.88;11.10;;;;;;;18.07;75.23;94067.88;5125901;27;20027;-74
2022/07/29 03:25:31;;;;;;;13.43;10.60;;;;;;;18.00;75.56;94067.75;5126136;28;20019;-75
2022/07/29 03:27:57;;;;;;;15.43;11.18;;;;;;;18.00;75.95;94076.63;5125969;28;20061;-74
2022/07/29 03:30:22;;;;;;;13.52;10.20;;;;;;;18.08;76.16;94076.78;5126010;28;20023;-74
2022/07/29 03:32:49;;;;;;;18.63;10.43;;;;;;;18.09;76.00;94072.91;5126059;28;20035;-75
2022/07/29 03:35:16;;;;;;;18.25;12.02;;;;;;;18.10;75.73;94079.88;5125209;27;20024;-73
2022/07/29 03:37:42;;;;;;;19.70;10.38;;;;;;;18.16;75.74;94076.53;5125773;28;20065;-73
2022/07/29 03:40:11;;;;;;;22.20;11.43;;;;;;;18.19;75.81;94083.91;5125736;28;20019;-72
2022/07/29 03:42:39;;;;;;;17.42;10.80;;;;;;;18.22;75.60;94077.81;5125628;28;20027;-72
2022/07/29 03:45:11;;;;;;;14.80;10.80;;;;;;;18.20;74.83;94080.09;5125278;28;20095;-72
2022/07/29 03:47:42;;;;;;;14.18;10.13;;;;;;;18.20;74.76;94077.41;5125520;28;20256;-72
2022/07/29 03:50:12;;;;;;;16.17;10.77;;;;;;;18.19;75.22;94080.44;5125441;28;20023;-72
2022/07/29 03:52:38;;;;;;;14.88;10.70;;;;;;;18.19;75.57;94069.66;5125421;28;20023;-73
2022/07/29 03:55:05;;;;;;;18.25;10.35;;;;;;;18.22;75.14;94077.81;5125173;28;20030;-74
2022/07/29 03:57:31;;;;;;;14.00;10.10;;;;;;;18.29;75.49;94087.97;5125354;28;20038;-73
2022/07/29 03:59:57;;;;;;;15.85;10.68;;;;;;;18.31;75.18;94083.00;5125072;28;20019;-73
2022/07/29 04:02:25;;;;;;;24.67;10.57;;;;;;;18.37;75.00;94086.19;5125173;28;20020;-73
2022/07/29 04:04:51;;;;;;;13.27;9.07;;;;;;;18.43;75.16;94092.84;5125366;28;20023;-73
2022/07/29 04:07:16;;;;;;;17.33;10.38;;;;;;;18.43;74.88;94090.16;5124996;28;20064;-73
2022/07/29 04:09:42;;;;;;;17.60;10.50;;;;;;;18.46;74.34;94094.84;5125182;28;20310;-73
2022/07/29 04:12:08;;;;;;;13.52;10.25;;;;;;;18.44;74.29;94094.44;5125190;28;20028;-73
2022/07/29 04:14:34;;;;;;;15.25;10.35;;;;;;;18.42;74.46;94102.09;5125112;28;20015;-73
2022/07/29 04:17:01;;;;;;;17.63;10.98;;;;;;;18.43;74.47;94093.63;5124791;28;20230;-73
2022/07/29 04:19:26;;;;;;;16.30;9.80;;;;;;;18.49;73.93;94088.72;5124890;28;20019;-73
2022/07/29 04:21:52;;;;;;;14.13;8.98;;;;;;;18.55;74.01;94089.22;5124892;28;20019;-73
2022/07/29 04:24:17;;;;;;;21.38;10.05;;;;;;;18.60;73.92;94087.03;5124827;28;20022;-73
2022/07/29 04:26:43;;;;;;;12.43;9.63;;;;;;;18.66;73.46;94079.38;5124866;28;20073;-72
2022/07/29 04:29:08;;;;;;;10.75;8.13;;;;;;;18.75;73.18;94082.66;5124721;28;20065;-72
2022/07/29 04:31:34;;;;;;;12.73;8.95;;;;;;;18.88;72.61;94085.19;5124539;28;20034;-72
2022/07/29 04:33:59;;;;;;;14.60;10.70;;;;;;;18.92;72.33;94086.81;5124563;28;20023;-72
2022/07/29 04:36:25;;;;;;;13.07;9.68;;;;;;;18.99;72.23;94091.53;5124615;28;20018;-72
2022/07/29 04:38:50;;;;;;;16.08;9.75;;;;;;;19.00;71.98;94083.09;5124511;28;20088;-72
2022/07/29 04:41:16;;;;;;;11.32;8.75;;;;;;;19.06;72.30;94093.59;5124601;28;20023;-73
2022/07/29 04:43:41;;;;;;;12.25;9.00;;;;;;;19.14;72.34;94087.19;5124382;28;20306;-72
2022/07/29 04:46:07;;;;;;;12.60;8.32;;;;;;;19.04;71.91;94102.84;5123662;28;20024;-72
2022/07/29 04:48:32;;;;;;;11.73;7.50;;;;;;;19.02;71.37;94107.81;5124296;28;20029;-73
2022/07/29 04:50:58;;;;;;;15.07;7.60;;;;;;;19.01;71.67;94106.28;5124251;28;20094;-72
2022/07/29 04:53:23;;;;;;;14.38;8.02;;;;;;;19.11;71.92;94101.41;5124268;28;20026;-72
2022/07/29 04:55:49;;;;;;;11.65;8.30;;;;;;;19.13;71.80;94104.50;5124316;28;20018;-73
2022/07/29 04:58:15;;;;;;;17.77;7.50;;;;;;;19.12;71.89;94111.84;5124191;28;20095;-72
2022/07/29 05:00:40;;;;;;;18.95;8.70;;;;;;;19.16;71.56;94106.50;5123878;28;20027;-72
2022/07/29 05:03:06;;;;;;;15.40;8.35;;;;;;;19.19;71.18;94111.97;5123866;28;20019;-72
2022/07/29 05:05:31;;;;;;;21.20;8.68;;;;;;;19.24;71.47;94119.00;5124067;28;20030;-72
2022/07/29 05:07:57;;;;;;;13.75;8.60;;;;;;;19.19;70.77;94116.59;5124169;28;20034;-72
2022/07/29 05:10:23;;;;;;;14.65;8.38;;;;;;;19.20;70.81;94116.22;5124138;28;20051;-72
2022/07/29 05:12:48;;;;;;;18.73;8.75;;;;;;;19.14;70.94;94114.19;5123986;28;20217;-72
2022/07/29 05:15:14;;;;;;;11.40;7.47;;;;;;;19.30;71.23;94116.78;5123702;28;20042;-72
2022/07/29 05:17:40;;;;;;;11.45;8.05;;;;;;;19.27;70.22;94107.44;5123715;28;20035;-72
2022/07/29 05:20:06;;;;;;;13.43;8.38;;;;;;;19.36;70.53;94124.19;5123641;28;20258;-72
2022/07/29 05:22:31;;;;;;;13.18;8.43;;;;;;;19.48;69.86;94114.31;5123630;28;20019;-72
2022/07/29 05:24:57;;;;;;;19.75;8.52;;;;;;;19.56;69.10;94122.19;5123663;28;20055;-73
2022/07/29 05:27:22;;;;;;;16.23;8.75;;;;;;;19.75;69.06;94118.63;5123697;28;20023;-73
2022/07/29 05:29:48;;;;;;;13.38;7.75;;;;;;;19.89;68.21;94128.09;5123754;28;20027;-73
2022/07/29 05:32:13;;;;;;;12.15;8.13;;;;;;;19.97;68.41;94122.41;5123488;28;20210;-73
2022/07/29 05:34:39;;;;;;;15.25;6.97;;;;;;;20.14;69.00;94125.72;5123493;28;20263;-72
2022/07/29 05:37:05;;;;;;;11.52;7.05;;;;;;;20.34;68.52;94118.25;5123478;28;20214;-73
2022/07/29 05:39:30;;;;;;;11.82;7.63;;;;;;;20.47;68.50;94121.47;5123310;28;20019;-73
2022/07/29 05:41:56;;;;;;;11.98;7.28;;;;;;;20.60;67.79;94114.69;5123511;28;20087;-72
2022/07/29 05:44:21;;;;;;;13.05;6.47;;;;;;;20.72;67.31;94119.88;5123557;28;20020;-73
2022/07/29 05:46:47;;;;;;;12.32;5.50;;;;;;;20.87;66.85;94122.72;5123423;28;20069;-73
2022/07/29 05:49:12;;;;;;;15.88;6.75;;;;;;;20.96;65.42;94125.88;5123245;28;20019;-73
2022/07/29 05:51:38;;;;;;;13.07;6.40;;;;;;;21.03;65.25;94118.59;5122147;28;20023;-73
2022/07/29 05:54:03;;;;;;;15.13;6.28;;;;;;;21.16;64.81;94129.94;5123412;28;20019;-73
2022/07/29 05:56:29;;;;;;;11.25;6.57;;;;;;;21.22;64.15;94128.44;5123173;28;20064;-74
2022/07/29 05:58:54;;;;;;;16.35;6.85;;;;;;;21.31;63.92;94133.56;5123297;28;20031;-73
2022/07/29 06:01:19;;;;;;;12.13;5.05;;;;;;;21.40;64.07;94136.72;5122989;28;20028;-74
2022/07/29 06:03:45;;;;;;;9.38;5.88;;;;;;;21.51;64.04;94138.78;5123154;28;20020;-74
2022/07/29 06:06:10;;;;;;;16.58;6.28;;;;;;;21.64;64.09;94142.78;5122887;28;20233;-73
2022/07/29 06:08:36;;;;;;;14.77;5.90;;;;;;;21.78;63.96;94134.72;5123240;28;20023;-74
2022/07/29 06:11:03;;;;;;;12.57;6.47;;;;;;;21.86;63.97;94135.56;5123158;28;20060;-73
2022/07/29 06:13:28;;;;;;;9.50;5.60;;;;;;;21.95;63.16;94140.66;5122986;28;20043;-73
2022/07/29 06:15:54;;;;;;;9.55;5.32;;;;;;;22.07;61.67;94137.63;5123194;28;20222;-70
2022/07/29 06:18:20;;;;;;;15.75;5.82;;;;;;;22.19;61.74;94140.00;5122319;28;20036;-69
2022/07/29 06:20:46;;;;;;;10.10;5.70;;;;;;;22.30;60.88;94142.78;5122899;28;20028;-69
2022/07/29 06:23:12;;;;;;;10.20;5.57;;;;;;;22.45;62.90;94140.94;5121884;28;20370;-70
2022/07/29 06:25:37;;;;;;;8.68;5.25;;;;;;;22.60;60.90;94144.47;5120937;28;20027;-70
2022/07/29 06:28:03;;;;;;;17.05;5.50;;;;;;;22.68;60.28;94131.72;5120826;28;20019;-67
2022/07/29 06:30:29;;;;;;;10.18;6.00;;;;;;;22.81;60.36;94136.38;5122539;28;20303;-69
2022/07/29 06:32:54;;;;;;;11.32;5.78;;;;;;;22.90;60.16;94132.53;5122809;28;20031;-69
2022/07/29 06:35:21;;;;;;;14.05;5.40;;;;;;;23.00;60.12;94129.84;5121510;28;20439;-69
2022/07/29 06:37:46;;;;;;;17.38;5.63;;;;;;;23.09;59.47;94137.66;5121420;28;20318;-69
2022/07/29 06:42:56;;;;;;;10.32;5.88;;;;;;;23.18;57.74;94129.09;5122468;28;20251;-70
2022/07/29 06:45:21;;;;;;;12.05;5.78;;;;;;;23.23;57.37;94123.28;5122495;28;20020;-70
2022/07/29 06:47:48;;;;;;;9.30;5.30;;;;;;;23.32;57.08;94120.19;5122404;28;20355;-70
2022/07/29 06:50:13;;;;;;;16.05;5.47;;;;;;;23.35;57.09;94128.34;5122445;28;20134;-69
2022/07/29 06:52:40;;;;;;;12.18;5.43;;;;;;;23.46;56.37;94120.19;5122291;28;20016;-69
2022/07/29 06:55:06;;;;;;;10.05;5.70;;;;;;;23.55;56.85;94126.03;5122583;28;20213;-70
2022/07/29 06:57:32;;;;;;;18.15;5.93;;;;;;;23.63;56.76;94129.53;5122511;28;20043;-70
2022/07/29 06:59:57;;;;;;;9.25;5.75;;;;;;;23.74;56.01;94124.84;5122442;28;20042;-71
2022/07/29 07:02:23;;;;;;;10.20;6.13;;;;;;;23.77;55.88;94128.75;5122454;28;20031;-70
2022/07/29 07:04:48;;;;;;;14.02;5.22;;;;;;;23.81;55.54;94118.63;5122447;28;20081;-74
2022/07/29 07:07:14;;;;;;;15.23;5.30;;;;;;;23.91;55.71;94122.50;5121508;28;20020;-74
2022/07/29 07:09:39;;;;;;;14.90;5.97;;;;;;;23.85;54.46;94124.06;5123310;28;20024;-74
2022/07/29 07:12:05;;;;;;;15.93;5.15;;;;;;;23.90;54.70;94118.25;5126203;28;20377;-74
2022/07/29 07:14:31;;;;;;;16.30;5.43;;;;;;;23.97;55.59;94118.22;5126246;27;20028;-73
2022/07/29 07:16:56;;;;;;;9.15;5.40;;;;;;;24.07;55.48;94117.41;5126210;28;20255;-74
2022/07/29 07:19:22;;;;;;;9.77;5.18;;;;;;;24.10;55.02;94122.09;5126209;28;20232;-75
2022/07/29 07:21:47;;;;;;;10.50;5.53;;;;;;;24.13;54.51;94123.25;5126004;28;20038;-75
2022/07/29 07:24:13;;;;;;;19.85;6.05;;;;;;;24.19;55.03;94119.72;5125746;27;20023;-74
2022/07/29 07:26:39;;;;;;;15.43;5.88;;;;;;;24.29;54.02;94115.41;5125717;28;20087;-75
2022/07/29 07:29:05;;;;;;;14.90;4.70;;;;;;;24.35;54.21;94115.78;5126051;28;20030;-75
2022/07/29 07:31:31;;;;;;;11.30;4.93;;;;;;;24.40;54.11;94121.63;5126198;28;20051;-74
2022/07/29 07:33:57;;;;;;;10.38;5.40;;;;;;;24.48;53.85;94116.88;5126019;28;20027;-73
2022/07/29 07:36:22;;;;;;;11.30;5.25;;;;;;;24.57;53.70;94117.28;5125906;28;20028;-73
2022/07/29 07:38:48;;;;;;;11.57;4.75;;;;;;;24.64;53.29;94113.75;5125772;28;20069;-74
2022/07/29 07:41:13;;;;;;;8.30;4.50;;;;;;;24.57;52.42;94114.56;5125689;28;20051;-74
2022/07/29 07:43:39;;;;;;;8.88;4.97;;;;;;;24.59;52.30;94112.22;5125857;28;20033;-74
2022/07/29 07:46:04;;;;;;;14.07;5.20;;;;;;;24.69;52.28;94118.00;5125434;28;20054;-74
2022/07/29 07:48:30;;;;;;;8.73;4.78;;;;;;;24.77;51.63;94114.84;5125528;28;20054;-75
2022/07/29 07:50:55;;;;;;;9.25;4.03;;;;;;;24.86;51.33;94119.09;5125841;28;20027;-74
2022/07/29 07:53:21;;;;;;;7.75;4.57;;;;;;;24.92;50.90;94115.53;5125645;27;20064;-74
2022/07/29 07:55:47;;;;;;;5.60;3.97;;;;;;;24.97;49.88;94109.69;5125363;28;20030;-75
2022/07/29 07:58:12;;;;;;;8.27;3.63;;;;;;;25.00;50.23;94108.88;5125359;28;20116;-74
2022/07/29 08:00:38;;;;;;;8.02;4.30;;;;;;;25.06;49.77;94113.91;5125333;28;20019;-74
2022/07/29 08:03:03;;;;;;;11.15;3.95;;;;;;;25.11;50.09;94116.19;5125328;28;20019;-73
2022/07/29 08:05:29;;;;;;;8.27;4.50;;;;;;;25.17;50.11;94107.19;5125247;28;20038;-76
2022/07/29 08:07:54;;;;;;;13.35;4.35;;;;;;;25.24;49.77;94111.88;5125388;28;20273;-79
2022/07/29 08:13:10;;;;;;;8.80;3.90;;;;;;;25.35;48.63;94112.56;5125191;28;20026;-78
2022/07/29 08:15:36;;;;;;;9.73;3.78;;;;;;;25.42;48.91;94114.44;5125144;28;20056;-89
2022/07/29 08:18:01;;;;;;;9.20;4.47;;;;;;;25.44;48.42;94114.81;5125224;28;20039;-87
2022/07/29 08:20:27;;;;;;;16.05;3.80;;;;;;;25.52;48.14;94113.56;5125235;28;20317;-88
2022/07/29 08:22:53;;;;;;;8.82;4.53;;;;;;;25.61;48.09;94110.41;5124584;28;20064;-81
2022/07/29 08:25:20;;;;;;;6.80;3.95;;;;;;;25.70;47.88;94115.38;5124707;28;20026;-85
2022/07/29 08:27:46;;;;;;;5.57;3.33;;;;;;;25.81;47.89;94116.09;5124775;28;20023;-83
2022/07/29 08:30:12;;;;;;;7.68;3.65;;;;;;;25.85;46.78;94116.03;5123640;28;20034;-79
2022/07/29 08:32:37;;;;;;;6.22;3.58;;;;;;;25.92;46.34;94110.53;5124702;28;20027;-79
2022/07/29 08:35:03;;;;;;;10.02;4.05;;;;;;;25.97;46.13;94107.34;5124656;28;20027;-80
2022/07/29 08:37:28;;;;;;;9.52;3.65;;;;;;;26.04;46.74;94106.53;5124497;28;20389;-80
2022/07/29 08:39:54;;;;;;;6.60;3.97;;;;;;;26.12;46.01;94111.50;5124775;28;20313;-80
2022/07/29 08:42:19;;;;;;;6.95;3.97;;;;;;;26.13;46.30;94113.03;5124622;28;20250;-80
2022/07/29 08:44:45;;;;;;;7.38;3.72;;;;;;;26.04;44.75;94107.28;5124300;28;20030;-81
2022/07/29 08:47:14;;;;;;;4.68;3.17;;;;;;;26.09;44.12;94109.56;5124495;28;20032;-81
2022/07/29 08:49:39;;;;;;;11.45;3.30;;;;;;;26.08;44.25;94099.84;5124382;28;20023;-81
2022/07/29 08:52:06;;;;;;;6.15;2.78;;;;;;;26.15;44.44;94105.22;5123119;28;20033;-80
2022/07/29 08:54:33;;;;;;;9.05;3.90;;;;;;;26.29;44.71;94106.25;5123932;28;20020;-80
2022/07/29 08:57:00;;;;;;;4.28;2.53;;;;;;;26.33;43.51;94104.25;5123986;28;20087;-81
2022/07/29 08:59:27;;;;;;;7.20;3.10;;;;;;;26.48;43.17;94108.38;5124179;27;20064;-80
2022/07/29 09:01:54;;;;;;;6.15;2.97;;;;;;;26.47;42.61;94101.34;5123921;28;20027;-80
2022/07/29 09:04:20;;;;;;;8.90;2.83;;;;;;;26.48;45.80;94113.03;5123851;28;20090;-79
2022/07/29 09:06:53;;;;;;;7.22;3.22;;;;;;;26.40;46.21;94104.19;5123844;28;20028;-79
2022/07/29 09:09:19;;;;;;;9.98;3.50;;;;;;;26.37;46.67;94100.28;5123960;28;20023;-78
2022/07/29 09:11:44;;;;;;;6.55;3.28;;;;;;;26.34;45.27;94098.38;5123787;28;20382;-78
2022/07/29 09:14:13;;;;;;;7.60;3.85;;;;;;;26.32;44.68;94089.81;5123815;28;20027;-85
2022/07/29 09:16:45;;;;;;;7.65;3.50;;;;;;;26.37;44.77;94091.31;5123662;28;20046;-78
2022/07/29 09:19:22;;;;;;;8.07;3.67;;;;;;;26.44;46.04;94093.97;5123300;28;20027;-79
2022/07/29 09:21:59;;;;;;;4.97;3.70;;;;;;;26.59;45.08;94089.13;5123692;28;20019;-79
2022/07/29 09:24:27;;;;;;;7.80;3.95;;;;;;;26.76;44.70;94095.53;5123633;28;20027;-81
2022/07/29 09:26:52;;;;;;;9.57;3.28;;;;;;;26.90;43.71;94083.63;5123108;27;20218;-81
2022/07/29 09:29:20;;;;;;;14.48;3.72;;;;;;;27.04;44.91;94083.44;5123228;28;20019;-82
2022/07/29 09:31:48;;;;;;;4.97;3.53;;;;;;;27.21;44.32;94087.06;5122224;28;20030;-82
2022/07/29 09:34:16;;;;;;;5.40;3.65;;;;;;;27.36;43.38;94082.97;5123153;28;20019;-82
2022/07/29 09:36:45;;;;;;;4.80;3.28;;;;;;;27.55;43.18;94088.94;5123685;28;20262;-83
2022/07/29 09:39:11;;;;;;;10.50;3.90;;;;;;;27.69;42.74;94083.22;5123661;28;20260;-82
2022/07/29 09:41:46;;;;;;;5.57;3.92;;;;;;;27.80;41.36;94092.03;5123595;28;20046;-81
2022/07/29 09:44:11;;;;;;;12.30;4.22;;;;;;;27.86;42.60;94086.81;5123442;28;20027;-82
2022/07/29 09:46:37;;;;;;;11.20;4.15;;;;;;;27.91;42.03;94083.63;5123041;28;20027;-82
2022/07/29 09:49:11;;;;;;;7.03;3.85;;;;;;;27.91;42.03;94074.66;5123092;28;20022;-81
2022/07/29 09:51:37;;;;;;;6.78;3.70;;;;;;;27.87;41.81;94074.72;5122991;28;20310;-83
2022/07/29 09:54:25;;;;;;;22.63;4.28;;;;;;;27.83;41.53;94084.94;5123146;28;20019;-84
2022/07/29 09:56:52;;;;;;;15.38;4.25;;;;;;;27.84;42.69;94088.44;5121704;28;20310;-86
2022/07/29 09:59:20;;;;;;;5.53;3.88;;;;;;;27.84;42.71;94072.78;5122932;28;20012;-79
2022/07/29 10:01:45;;;;;;;9.57;4.03;;;;;;;27.82;42.64;94069.69;5123104;28;20095;-82
2022/07/29 10:04:11;;;;;;;9.70;4.10;;;;;;;27.75;44.21;94062.38;5123047;28;20023;-83
2022/07/29 10:06:56;;;;;;;11.13;4.95;;;;;;;27.70;44.04;94065.59;5122976;28;20028;-83
2022/07/29 10:09:22;;;;;;;6.90;3.78;;;;;;;27.70;43.44;94068.34;5122949;28;20053;-82
2022/07/29 10:12:04;;;;;;;9.60;4.30;;;;;;;27.72;45.16;94060.47;5122930;28;20314;-81
2022/07/29 10:14:31;;;;;;;11.90;5.03;;;;;;;27.70;43.98;94057.38;5123275;28;20024;-82
2022/07/29 10:16:58;;;;;;;9.23;4.28;;;;;;;27.68;41.83;94048.81;5123146;28;20247;-82
2022/07/29 10:19:24;;;;;;;5.70;4.28;;;;;;;27.77;44.90;94054.50;5122842;28;20019;-81
2022/07/29 10:21:50;;;;;;;13.05;4.13;;;;;;;27.84;43.87;94052.84;5123296;28;20369;-82
2022/07/29 10:24:16;;;;;;;5.82;4.15;;;;;;;27.94;41.96;94046.41;5122954;28;20020;-81
2022/07/29 10:26:42;;;;;;;7.53;4.18;;;;;;;28.08;40.89;94043.41;5121805;28;20194;-81
2022/07/29 10:29:07;;;;;;;7.25;4.20;;;;;;;28.18;41.74;94038.91;5120724;28;20011;-80
2022/07/29 10:31:57;;;;;;;11.48;4.35;;;;;;;28.26;42.34;94036.81;5119966;28;20054;-81
2022/07/29 10:34:45;;;;;;;12.05;4.90;;;;;;;28.39;42.84;94035.75;5119780;28;20309;-81
2022/07/29 10:37:36;;;;;;;9.65;3.75;;;;;;;28.55;40.95;94035.03;5119429;28;20016;-82
2022/07/29 10:43:17;;;;;;;6.10;3.92;;;;;;;28.74;40.30;94027.19;5121253;28;20041;-81
2022/07/29 10:45:45;;;;;;;7.13;3.97;;;;;;;28.79;40.13;94029.44;5124753;28;20046;-81
2022/07/29 10:48:10;;;;;;;15.10;4.63;;;;;;;28.77;39.43;94027.09;5126778;28;20043;-82
2022/07/29 10:50:59;;;;;;;8.55;4.15;;;;;;;28.84;39.73;94028.16;5126794;28;20046;-83
2022/07/29 10:53:46;;;;;;;7.72;3.97;;;;;;;28.98;39.77;94020.38;5126597;28;20020;-82
2022/07/29 10:56:28;;;;;;;7.47;3.80;;;;;;;29.11;38.87;94008.75;5126745;28;20019;-81
2022/07/29 10:59:24;;;;;;;9.63;4.88;;;;;;;29.30;38.03;94013.34;5126611;28;20087;-82
2022/07/29 11:01:54;;;;;;;6.40;3.28;;;;;;;29.45;39.07;94013.75;5126476;28;20103;-82
2022/07/29 11:04:44;;;;;;;7.18;3.95;;;;;;;29.65;39.65;94010.91;5126428;28;20218;-81
2022/07/29 11:07:11;;;;;;;17.30;4.22;;;;;;;29.80;36.70;94011.34;5126353;28;20032;-80
2022/07/29 11:12:58;;;;;;;14.90;4.30;;;;;;;30.03;36.67;94009.56;5126581;28;20429;-81
2022/07/29 11:15:24;;;;;;;6.88;4.28;;;;;;;30.18;35.07;94003.22;5126084;27;20019;-81
2022/07/29 11:17:56;;;;;;;7.57;3.80;;;;;;;30.27;34.24;94004.56;5125956;28;20047;-81
2022/07/29 11:20:47;;;;;;;14.13;3.83;;;;;;;30.34;33.91;94009.88;5124677;28;20340;-81
2022/07/29 11:23:31;;;;;;;5.40;3.70;;;;;;;30.38;34.38;94005.06;5125932;28;20030;-81
2022/07/29 11:26:19;;;;;;;6.07;4.07;;;;;;;30.53;34.09;93997.94;5124546;28;20337;-78
2022/07/29 11:29:15;;;;;;;17.27;4.85;;;;;;;30.71;33.55;93997.38;5124880;28;20020;-71
2022/07/29 11:31:45;;;;;;;9.07;4.30;;;;;;;30.89;32.89;93988.59;5126089;28;20047;-71
2022/07/29 11:34:25;;;;;;;6.10;4.28;;;;;;;30.94;32.06;93996.31;5125755;28;20110;-71
2022/07/29 11:37:08;;;;;;;6.13;4.13;;;;;;;30.95;33.43;94008.09;5125796;28;20130;-71
2022/07/29 11:39:58;;;;;;;5.95;3.50;;;;;;;30.94;32.78;93999.06;5125897;28;20051;-73
2022/07/29 11:42:23;;;;;;;5.63;3.67;;;;;;;30.87;31.84;93984.72;5125272;28;20020;-74
2022/07/29 11:45:13;;;;;;;6.82;3.85;;;;;;;30.76;34.03;93993.31;5125631;28;20023;-74
2022/07/29 11:47:47;;;;;;;12.35;4.00;;;;;;;30.71;33.10;93993.84;5125589;28;20033;-74